Terminal Aerodrome Forecast
Issued by NWS Cleveland, OH

Home | Current Version | Previous Version | Graphics & Text | Print | Product List | Glossary Off
Versions: 1 2 3 4 5 6 7 8 9 10 11 12 13 14 15 16 17 18 19 20 21 22

000
FTUS41 KCLE 220639 AAB
TAFTOL
TAF AMD
KTOL 220639Z 2207/2306 18005KT 3SM BR SCT010
      TEMPO 2207/2209 00000KT 1/2SM FG VV009
     FM220900 00000KT 1/4SM FG VV004
      TEMPO 2212/2214 2SM BR OVC008
     FM221400 21003KT 3SM BR BKN008
      TEMPO 2214/2218 6SM BR BKN010
     FM221800 22008KT P6SM OVC025
     FM222100 22008KT P6SM BKN045
     FM230400 20008KT 5SM BR OVC025=

USA.gov is the U.S. government's official web portal to all federal, state and local government web resources and services.